createdAt,value
2018-01-07T00:00:05.768Z,10.13
2018-01-07T00:02:33.408Z,11.02
2018-01-07T00:05:00.995Z,9.65
2018-01-07T00:07:28.649Z,11.02
2018-01-07T00:09:56.238Z,8.97
2018-01-07T00:12:24.586Z,11.98
2018-01-07T00:14:52.201Z,9.63
2018-01-07T00:17:20.031Z,9.27
2018-01-07T00:19:48.428Z,8.90
2018-01-07T00:22:16.777Z,9.98
2018-01-07T00:24:44.402Z,11.70
2018-01-07T00:27:12.001Z,11.85
2018-01-07T00:29:39.635Z,10.15
2018-01-07T00:32:07.219Z,11.20
2018-01-07T00:34:34.854Z,10.05
2018-01-07T00:37:02.394Z,9.55
2018-01-07T00:39:29.976Z,10.75
2018-01-07T00:41:57.520Z,10.05
2018-01-07T00:44:25.146Z,8.52
2018-01-07T00:46:53.498Z,8.85
2018-01-07T00:49:21.079Z,7.93
2018-01-07T00:51:49.423Z,9.60
2018-01-07T00:54:17.045Z,7.55
2018-01-07T00:56:44.623Z,7.75
2018-01-07T00:59:12.247Z,8.10
2018-01-07T01:01:40.552Z,8.40
2018-01-07T01:04:08.170Z,8.38
2018-01-07T01:06:36.480Z,8.90
2018-01-07T01:09:04.090Z,8.55
2018-01-07T01:11:31.629Z,8.40
2018-01-07T01:13:59.245Z,8.15
2018-01-07T01:16:27.549Z,9.32
2018-01-07T01:18:55.124Z,7.83
2018-01-07T01:21:22.670Z,9.10
2018-01-07T01:23:50.255Z,9.65
2018-01-07T01:26:17.801Z,8.85
2018-01-07T01:28:45.385Z,8.20
2018-01-07T01:31:12.924Z,8.93
2018-01-07T01:33:40.507Z,9.23
2018-01-07T01:36:08.056Z,10.95
2018-01-07T01:38:35.644Z,8.63
2018-01-07T01:41:03.179Z,8.07
2018-01-07T01:43:30.766Z,7.57
2018-01-07T01:45:58.318Z,7.90
2018-01-07T01:48:26.848Z,10.27
2018-01-07T01:50:54.387Z,8.80
2018-01-07T01:53:22.736Z,6.75
2018-01-07T01:55:51.829Z,9.50
2018-01-07T01:58:19.431Z,14.55
2018-01-07T02:00:46.972Z,7.75
2018-01-07T02:03:15.285Z,10.50
2018-01-07T02:05:42.859Z,8.18
2018-01-07T02:08:10.405Z,7.72
2018-01-07T02:10:37.980Z,8.35
2018-01-07T02:13:05.528Z,7.10
2018-01-07T02:15:33.108Z,7.85
2018-01-07T02:18:00.683Z,11.73
2018-01-07T02:20:28.262Z,7.10
2018-01-07T02:22:56.572Z,8.15
2018-01-07T02:25:24.157Z,8.30
2018-01-07T02:27:51.772Z,6.70
2018-01-07T02:30:20.121Z,9.57
2018-01-07T02:32:47.665Z,7.05
2018-01-07T02:35:15.249Z,8.35
2018-01-07T02:37:42.787Z,7.10
2018-01-07T02:40:10.369Z,7.75
2018-01-07T02:42:37.913Z,6.78
2018-01-07T02:45:05.498Z,7.15
2018-01-07T02:47:33.816Z,11.40
2018-01-07T02:50:01.400Z,7.15
2018-01-07T02:52:28.937Z,5.35
2018-01-07T02:54:56.519Z,5.95
2018-01-07T02:57:24.056Z,6.22
2018-01-07T02:59:51.646Z,5.80
2018-01-07T03:02:19.184Z,5.60
2018-01-07T03:04:46.763Z,5.05
2018-01-07T03:07:14.306Z,4.90
2018-01-07T03:09:41.884Z,6.00
2018-01-07T03:12:09.423Z,7.05
2018-01-07T03:14:37.004Z,6.43
2018-01-07T03:17:04.546Z,6.97
2018-01-07T03:19:32.206Z,7.65
2018-01-07T03:21:59.744Z,6.00
2018-01-07T03:24:27.328Z,6.10
2018-01-07T03:26:54.864Z,7.45
2018-01-07T03:29:22.452Z,7.32
2018-01-07T03:31:49.988Z,7.45
2018-01-07T03:34:17.563Z,6.32
2018-01-07T03:36:45.103Z,5.80
2018-01-07T03:39:12.685Z,6.45
2018-01-07T03:41:40.223Z,6.12
2018-01-07T03:44:07.803Z,5.65
2018-01-07T03:46:35.342Z,6.55
2018-01-07T03:49:02.931Z,5.57
2018-01-07T03:51:30.466Z,5.78
2018-01-07T03:53:58.068Z,4.70
2018-01-07T03:56:25.603Z,5.25
2018-01-07T03:58:53.189Z,4.32
2018-01-07T04:01:20.724Z,4.30
2018-01-07T04:03:48.296Z,4.35
2018-01-07T04:06:15.828Z,3.70
2018-01-07T04:08:43.402Z,4.18
2018-01-07T04:11:10.943Z,4.35
2018-01-07T04:13:38.519Z,4.97
2018-01-07T04:16:06.055Z,5.80
2018-01-07T04:18:33.633Z,4.85
2018-01-07T04:21:01.175Z,6.40
2018-01-07T04:23:28.753Z,6.03
2018-01-07T04:25:56.296Z,6.12
2018-01-07T04:28:23.876Z,6.78
2018-01-07T04:30:51.408Z,6.35
2018-01-07T04:33:18.986Z,7.18
2018-01-07T04:35:46.579Z,6.22
2018-01-07T04:38:14.131Z,7.28
2018-01-07T04:40:41.663Z,5.70
2018-01-07T04:43:09.242Z,7.65
2018-01-07T04:45:36.783Z,7.60
2018-01-07T04:48:04.364Z,7.75
2018-01-07T04:50:31.905Z,8.00
2018-01-07T04:52:59.484Z,9.18
2018-01-07T04:55:27.019Z,6.12
2018-01-07T04:57:54.599Z,7.10
2018-01-07T05:00:22.135Z,9.32
2018-01-07T05:02:49.708Z,6.85
2018-01-07T05:05:17.241Z,5.12
2018-01-07T05:07:45.584Z,5.78
2018-01-07T05:10:13.133Z,6.18
2018-01-07T05:12:40.676Z,5.60
2018-01-07T05:15:08.252Z,6.65
2018-01-07T05:17:35.787Z,8.10
2018-01-07T05:20:03.365Z,6.85
2018-01-07T05:22:30.906Z,6.80
2018-01-07T05:24:58.483Z,6.60
2018-01-07T05:27:26.028Z,5.85
2018-01-07T05:29:53.607Z,5.82
2018-01-07T05:32:21.140Z,5.60
2018-01-07T05:34:48.719Z,6.03
2018-01-07T05:37:16.252Z,6.05
2018-01-07T05:39:43.832Z,6.10
2018-01-07T05:42:11.369Z,6.55
2018-01-07T05:44:38.947Z,6.15
2018-01-07T05:47:06.505Z,5.70
2018-01-07T05:49:34.087Z,5.47
2018-01-07T05:52:01.625Z,6.32
2018-01-07T05:54:29.199Z,4.70
2018-01-07T05:56:56.741Z,7.22
2018-01-07T05:59:24.324Z,5.20
2018-01-07T06:01:51.855Z,5.05
2018-01-07T06:04:19.440Z,4.80
2018-01-07T06:06:46.970Z,7.25
2018-01-07T06:09:14.554Z,5.40
2018-01-07T06:11:42.088Z,5.45
2018-01-07T06:14:09.662Z,5.10
2018-01-07T06:16:37.205Z,7.53
2018-01-07T06:19:04.775Z,5.68
2018-01-07T06:21:32.315Z,5.97
2018-01-07T06:23:59.900Z,6.70
2018-01-07T06:26:27.439Z,7.20
2018-01-07T06:28:55.059Z,5.47
2018-01-07T06:31:23.379Z,7.15
2018-01-07T06:33:50.960Z,7.47
2018-01-07T06:36:18.487Z,6.00
2018-01-07T06:38:46.931Z,7.20
2018-01-07T06:41:14.481Z,6.78
2018-01-07T06:43:42.055Z,7.07
2018-01-07T06:46:09.593Z,5.72
2018-01-07T06:48:37.165Z,6.28
2018-01-07T06:51:04.700Z,6.43
2018-01-07T06:53:32.276Z,5.95
2018-01-07T06:55:59.815Z,6.10
2018-01-07T06:58:27.653Z,6.78
2018-01-07T07:00:55.981Z,6.50
2018-01-07T07:03:23.569Z,8.88
2018-01-07T07:05:51.923Z,6.97
2018-01-07T07:08:19.461Z,8.23
2018-01-07T07:10:47.032Z,7.85
2018-01-07T07:13:14.567Z,7.25
2018-01-07T07:15:42.100Z,8.35
2018-01-07T07:18:10.442Z,7.35
2018-01-07T07:20:37.971Z,8.48
2018-01-07T07:23:05.547Z,8.65
2018-01-07T07:25:33.083Z,8.45
2018-01-07T07:28:00.655Z,7.70
2018-01-07T07:30:28.186Z,8.23
2018-01-07T07:32:55.760Z,8.65
2018-01-07T07:35:23.330Z,9.13
2018-01-07T07:37:50.904Z,8.93
2018-01-07T07:40:18.439Z,9.40
2018-01-07T07:42:46.113Z,10.55
2018-01-07T07:45:13.644Z,9.43
2018-01-07T07:47:41.219Z,10.48
2018-01-07T07:50:08.752Z,9.48
2018-01-07T07:52:37.096Z,10.55
2018-01-07T07:55:04.641Z,12.00
2018-01-07T07:57:32.218Z,13.02
2018-01-07T07:59:59.777Z,10.95
2018-01-07T08:02:27.376Z,10.85
2018-01-07T08:04:55.687Z,13.10
2018-01-07T08:07:23.262Z,11.70
2018-01-07T08:09:50.833Z,12.35
2018-01-07T08:12:19.212Z,11.55
2018-01-07T08:14:46.747Z,13.13
2018-01-07T08:17:14.683Z,11.18
2018-01-07T08:19:42.983Z,14.85
2018-01-07T08:22:10.555Z,12.40
2018-01-07T08:24:38.103Z,13.23
2018-01-07T08:27:05.682Z,11.35
2018-01-07T08:29:33.222Z,13.45
2018-01-07T08:32:00.795Z,11.38
2018-01-07T08:34:28.336Z,11.85
2018-01-07T08:36:55.919Z,12.60
2018-01-07T08:39:23.457Z,12.25
2018-01-07T08:41:51.037Z,12.98
2018-01-07T08:44:18.572Z,15.52
2018-01-07T08:46:46.150Z,14.05
2018-01-07T08:49:13.696Z,14.40
2018-01-07T08:51:41.267Z,14.35
2018-01-07T08:54:08.802Z,13.62
2018-01-07T08:56:36.380Z,15.20
2018-01-07T08:59:03.925Z,14.30
2018-01-07T09:01:31.508Z,17.20
2018-01-07T09:03:59.048Z,13.13
2018-01-07T09:06:26.706Z,12.15
2018-01-07T09:08:54.990Z,16.85
2018-01-07T09:11:22.568Z,15.10
2018-01-07T09:13:50.108Z,17.95
2018-01-07T09:16:17.685Z,14.40
2018-01-07T09:18:45.232Z,14.93
2018-01-07T09:21:12.808Z,14.60
2018-01-07T09:23:40.344Z,13.45
2018-01-07T09:26:07.919Z,13.30
2018-01-07T09:28:35.460Z,12.65
2018-01-07T09:31:03.051Z,12.85
2018-01-07T09:33:30.588Z,15.30
2018-01-07T09:35:58.167Z,13.43
2018-01-07T09:38:25.705Z,14.13
2018-01-07T09:40:53.287Z,13.90
2018-01-07T09:43:20.824Z,14.38
2018-01-07T09:45:48.399Z,12.48
2018-01-07T09:48:15.940Z,14.93
2018-01-07T09:50:43.512Z,14.93
2018-01-07T09:53:11.044Z,13.07
2018-01-07T09:55:39.404Z,13.75
2018-01-07T09:58:07.715Z,14.63
2018-01-07T10:00:35.289Z,12.55
2018-01-07T10:03:02.825Z,11.23
2018-01-07T10:05:30.406Z,10.85
2018-01-07T10:07:57.939Z,10.38
2018-01-07T10:10:26.350Z,12.50
2018-01-07T10:12:53.883Z,11.88
2018-01-07T10:15:22.224Z,12.23
2018-01-07T10:17:49.762Z,10.13
2018-01-07T10:20:17.333Z,11.70
2018-01-07T10:22:44.866Z,10.90
2018-01-07T10:25:12.445Z,11.57
2018-01-07T10:27:39.984Z,10.30
2018-01-07T10:30:07.572Z,10.88
2018-01-07T10:32:35.104Z,10.52
2018-01-07T10:35:02.683Z,10.98
2018-01-07T10:37:30.218Z,10.95
2018-01-07T10:39:57.796Z,9.93
2018-01-07T10:42:25.329Z,10.30
2018-01-07T10:44:52.903Z,9.65
2018-01-07T10:47:20.441Z,8.90
2018-01-07T10:49:48.024Z,10.05
2018-01-07T10:52:15.563Z,10.30
2018-01-07T10:54:43.139Z,12.07
2018-01-07T10:57:10.676Z,9.25
2018-01-07T10:59:38.250Z,9.85
2018-01-07T11:02:05.792Z,10.45
2018-01-07T11:04:33.371Z,10.15
2018-01-07T11:07:00.903Z,11.90
2018-01-07T11:09:29.242Z,11.45
2018-01-07T11:11:56.778Z,11.95
2018-01-07T11:14:24.357Z,10.52
2018-01-07T11:16:51.888Z,12.93
2018-01-07T11:19:19.470Z,10.10
2018-01-07T11:21:47.038Z,11.15
2018-01-07T11:24:14.646Z,11.70
2018-01-07T11:26:42.952Z,12.20
2018-01-07T11:29:18.809Z,11.82
2018-01-07T11:31:46.401Z,13.85
2018-01-07T11:34:13.941Z,11.52
2018-01-07T11:36:41.476Z,13.98
2018-01-07T11:39:09.050Z,11.32
2018-01-07T11:41:36.641Z,12.40
2018-01-07T11:44:04.172Z,12.02
2018-01-07T11:46:31.708Z,12.35
2018-01-07T11:48:59.288Z,12.57
2018-01-07T11:51:26.827Z,12.15
2018-01-07T11:53:54.449Z,13.00
2018-01-07T11:56:21.985Z,12.77
2018-01-07T11:58:49.560Z,12.57
2018-01-07T12:01:17.093Z,12.60
2018-01-07T12:03:44.663Z,13.13
2018-01-07T12:06:12.311Z,14.00
2018-01-07T12:08:39.969Z,14.20
2018-01-07T12:11:07.520Z,16.15
2018-01-07T12:13:35.137Z,13.88
2018-01-07T12:16:02.680Z,11.23
2018-01-07T12:18:30.265Z,12.85
2018-01-07T12:20:57.845Z,12.37
2018-01-07T12:23:25.536Z,12.30
2018-01-07T12:25:53.075Z,11.02
2018-01-07T12:28:20.656Z,10.50
2018-01-07T12:30:48.235Z,12.23
2018-01-07T12:33:15.821Z,10.77
2018-01-07T12:35:43.356Z,12.75
2018-01-07T12:38:10.933Z,12.00
2018-01-07T12:40:38.533Z,15.95
2018-01-07T12:43:06.067Z,14.35
2018-01-07T12:45:34.370Z,13.25
2018-01-07T12:48:01.948Z,11.75
2018-01-07T12:50:29.523Z,10.60
2018-01-07T12:52:57.065Z,11.05
2018-01-07T12:55:24.691Z,12.13
2018-01-07T12:57:52.987Z,11.45
2018-01-07T13:00:20.564Z,11.98
2018-01-07T13:02:48.105Z,11.60
2018-01-07T13:05:15.726Z,10.85
2018-01-07T13:07:43.260Z,13.88
2018-01-07T13:10:10.841Z,10.73
2018-01-07T13:12:38.376Z,12.37
2018-01-07T13:15:05.949Z,14.40
2018-01-07T13:17:33.483Z,14.48
2018-01-07T13:20:01.112Z,14.55
2018-01-07T13:22:28.669Z,14.77
2018-01-07T13:24:57.013Z,14.48
2018-01-07T13:27:24.592Z,14.90
2018-01-07T13:29:52.896Z,14.85
2018-01-07T13:32:20.587Z,16.35
2018-01-07T13:34:48.202Z,13.48
2018-01-07T13:37:16.515Z,14.50
2018-01-07T13:39:44.088Z,14.68
2018-01-07T13:42:11.665Z,15.32
2018-01-07T13:44:39.248Z,17.37
2018-01-07T13:47:07.558Z,15.98
2018-01-07T13:49:35.184Z,14.20
2018-01-07T13:52:02.798Z,14.07
2018-01-07T13:54:30.374Z,17.12
2018-01-07T13:56:57.950Z,16.67
2018-01-07T13:59:25.527Z,19.40
2018-01-07T14:01:53.065Z,15.15
2018-01-07T14:04:20.687Z,16.08
2018-01-07T14:06:48.229Z,17.77
2018-01-07T14:09:16.614Z,14.20
2018-01-07T14:11:44.152Z,13.93
2018-01-07T14:14:12.500Z,10.52
2018-01-07T14:16:40.073Z,12.15
2018-01-07T14:19:07.703Z,13.60
2018-01-07T14:21:35.236Z,10.93
2018-01-07T14:24:02.849Z,11.35
2018-01-07T14:26:30.388Z,11.68
2018-01-07T14:28:57.965Z,10.98
2018-01-07T14:31:25.596Z,12.65
2018-01-07T14:33:53.172Z,11.68
2018-01-07T14:36:20.744Z,14.07
2018-01-07T14:38:48.356Z,13.68
2018-01-07T14:41:15.913Z,13.00
2018-01-07T14:43:43.558Z,10.90
2018-01-07T14:46:11.900Z,14.52
2018-01-07T14:48:39.434Z,12.68
2018-01-07T14:51:07.012Z,13.45
2018-01-07T14:53:34.597Z,13.68
2018-01-07T14:56:02.189Z,12.80
2018-01-07T14:58:29.814Z,13.05
2018-01-07T15:00:57.368Z,14.00
2018-01-07T15:03:24.981Z,14.23
2018-01-07T15:05:52.513Z,11.43
2018-01-07T15:08:20.868Z,16.20
2018-01-07T15:10:48.426Z,15.02
2018-01-07T15:13:16.045Z,15.77
2018-01-07T15:15:43.582Z,15.35
2018-01-07T15:18:11.924Z,15.65
2018-01-07T15:20:39.480Z,17.45
2018-01-07T15:23:07.101Z,17.75
2018-01-07T15:25:34.675Z,20.05
2018-01-07T15:28:02.294Z,19.17
2018-01-07T15:30:30.612Z,20.62
2018-01-07T15:32:58.190Z,18.95
2018-01-07T15:35:25.772Z,21.77
2018-01-07T15:37:53.385Z,18.33
2018-01-07T15:40:20.964Z,17.37
2018-01-07T15:42:48.558Z,20.23
2018-01-07T15:45:16.106Z,18.90
2018-01-07T15:47:43.687Z,16.85
2018-01-07T15:50:12.032Z,18.80
2018-01-07T15:52:39.659Z,16.45
2018-01-07T15:55:07.200Z,18.15
2018-01-07T15:57:35.547Z,17.52
2018-01-07T16:00:03.199Z,18.90
2018-01-07T16:02:30.810Z,17.65
2018-01-07T16:04:58.403Z,19.52
2018-01-07T16:07:26.031Z,17.75
2018-01-07T16:09:54.371Z,18.23
2018-01-07T16:12:22.003Z,20.15
2018-01-07T16:14:49.579Z,21.37
2018-01-07T16:17:17.164Z,17.87
2018-01-07T16:19:44.745Z,17.37
2018-01-07T16:22:12.377Z,17.08
2018-01-07T16:24:39.964Z,18.90
2018-01-07T16:27:08.346Z,17.90
2018-01-07T16:29:36.650Z,18.48
2018-01-07T16:32:04.273Z,18.50
2018-01-07T16:34:32.627Z,20.27
2018-01-07T16:37:00.263Z,18.30
2018-01-07T16:39:27.851Z,17.55
2018-01-07T16:41:55.481Z,17.95
2018-01-07T16:44:23.066Z,19.10
2018-01-07T16:46:50.685Z,21.02
2018-01-07T16:49:18.270Z,19.83
2018-01-07T16:51:45.920Z,21.50
2018-01-07T16:54:13.496Z,20.75
2018-01-07T16:56:41.147Z,21.60
2018-01-07T16:59:08.734Z,21.08
2018-01-07T17:01:36.363Z,21.25
2018-01-07T17:04:06.642Z,22.17
2018-01-07T17:06:44.652Z,27.08
2018-01-07T17:09:13.016Z,26.50
2018-01-07T17:11:40.633Z,26.50
2018-01-07T17:14:08.223Z,28.48
2018-01-07T17:16:35.847Z,27.40
2018-01-07T17:19:03.426Z,29.15
2018-01-07T17:21:31.060Z,27.42
2018-01-07T17:23:58.656Z,27.80
2018-01-07T17:26:26.277Z,28.52
2018-01-07T17:28:53.861Z,34.88
2018-01-07T17:31:21.491Z,34.80
2018-01-07T17:33:49.077Z,34.10
2018-01-07T17:36:16.704Z,33.40
2018-01-07T17:38:45.054Z,34.65
2018-01-07T17:41:12.686Z,32.70
2018-01-07T17:43:40.266Z,33.42
2018-01-07T17:46:07.897Z,34.63
2018-01-07T17:48:35.480Z,37.47
2018-01-07T17:51:03.070Z,34.33
2018-01-07T17:53:30.694Z,36.00
2018-01-07T17:55:58.271Z,37.25
2018-01-07T17:58:25.891Z,33.97
2018-01-07T18:00:53.478Z,33.80
2018-01-07T18:03:21.117Z,36.50
2018-01-07T18:05:48.748Z,34.85
2018-01-07T18:08:17.100Z,35.70
2018-01-07T18:10:44.732Z,35.92
2018-01-07T18:13:12.316Z,35.42
2018-01-07T18:15:39.944Z,34.25
2018-01-07T18:18:07.531Z,33.47
2018-01-07T18:20:35.167Z,34.30
2018-01-07T18:23:03.358Z,31.40
2018-01-07T18:25:30.998Z,33.47
2018-01-07T18:27:58.590Z,34.95
2018-01-07T18:30:26.227Z,34.65
2018-01-07T18:32:53.811Z,31.75
2018-01-07T18:35:21.440Z,31.80
2018-01-07T18:37:49.019Z,32.45
2018-01-07T18:40:16.650Z,32.72
2018-01-07T18:42:44.238Z,29.87
2018-01-07T18:45:11.870Z,30.77
2018-01-07T18:47:39.468Z,32.03
2018-01-07T18:50:07.121Z,31.30
2018-01-07T18:52:34.714Z,28.27
2018-01-07T18:55:03.100Z,29.92
2018-01-07T18:57:31.512Z,30.88
2018-01-07T18:59:59.102Z,30.80
2018-01-07T19:02:26.744Z,28.33
2018-01-07T19:04:54.373Z,29.33
2018-01-07T19:07:22.734Z,31.08
2018-01-07T19:09:50.405Z,31.45
2018-01-07T19:12:18.771Z,31.50
2018-01-07T19:14:46.406Z,32.92
2018-01-07T19:17:13.990Z,34.80
2018-01-07T19:19:41.613Z,41.05
2018-01-07T19:22:09.213Z,29.42
2018-01-07T19:24:36.848Z,28.27
2018-01-07T19:27:04.444Z,28.25
2018-01-07T19:29:32.069Z,30.80
2018-01-07T19:31:59.647Z,29.83
2018-01-07T19:34:27.288Z,29.85
2018-01-07T19:36:54.914Z,31.00
2018-01-07T19:39:23.309Z,29.95
2018-01-07T19:41:50.904Z,27.35
2018-01-07T19:44:18.536Z,36.75
2018-01-07T19:46:46.119Z,30.85
2018-01-07T19:49:13.750Z,28.60
2018-01-07T19:51:41.352Z,29.42
2018-01-07T19:54:08.972Z,31.15
2018-01-07T19:56:36.606Z,32.03
2018-01-07T19:59:04.972Z,29.33
2018-01-07T20:01:32.611Z,30.90
2018-01-07T20:04:00.215Z,29.85
2018-01-07T20:06:28.633Z,31.50
2018-01-07T20:08:56.402Z,28.50
2018-01-07T20:11:24.035Z,31.05
2018-01-07T20:13:51.674Z,33.03
2018-01-07T20:16:20.027Z,29.25
2018-01-07T20:18:47.661Z,29.90
2018-01-07T20:21:15.248Z,29.25
2018-01-07T20:23:42.873Z,31.10
2018-01-07T20:26:10.459Z,29.23
2018-01-07T20:28:38.107Z,29.42
2018-01-07T20:31:05.700Z,33.03
2018-01-07T20:33:33.328Z,33.05
2018-01-07T20:36:00.920Z,30.25
2018-01-07T20:38:28.552Z,32.03
2018-01-07T20:40:56.149Z,35.05
2018-01-07T20:43:23.778Z,30.70
2018-01-07T20:45:51.436Z,36.42
2018-01-07T20:48:19.068Z,32.88
2018-01-07T20:50:46.644Z,35.47
2018-01-07T20:53:14.267Z,30.10
2018-01-07T20:55:42.632Z,29.92
2018-01-07T20:58:11.078Z,31.30
2018-01-07T21:00:38.660Z,29.87
2018-01-07T21:03:06.255Z,32.55
2018-01-07T21:05:34.674Z,30.27
2018-01-07T21:08:02.314Z,32.90
2018-01-07T21:10:29.964Z,32.95
2018-01-07T21:12:58.316Z,32.50
2018-01-07T21:15:25.951Z,31.87
2018-01-07T21:17:53.547Z,33.22
2018-01-07T21:20:21.176Z,34.17
2018-01-07T21:22:48.759Z,31.60
2018-01-07T21:25:16.450Z,32.17
2018-01-07T21:27:44.035Z,30.52
2018-01-07T21:30:11.674Z,31.10
2018-01-07T21:32:39.259Z,31.52
2018-01-07T21:35:06.891Z,31.80
2018-01-07T21:37:35.251Z,31.80
2018-01-07T21:40:03.659Z,31.73
2018-01-07T21:42:31.250Z,31.70
2018-01-07T21:44:59.642Z,32.33
2018-01-07T21:47:27.227Z,32.05
2018-01-07T21:49:54.846Z,33.55
2018-01-07T21:52:22.440Z,31.70
2018-01-07T21:54:50.076Z,30.55
2018-01-07T21:57:17.734Z,32.05
2018-01-07T21:59:58.901Z,37.83
2018-01-07T22:02:28.118Z,30.65
2018-01-07T22:04:59.152Z,32.92
2018-01-07T22:07:26.742Z,28.80
2018-01-07T22:09:54.363Z,30.10
2018-01-07T22:12:21.955Z,28.98
2018-01-07T22:14:49.610Z,28.35
2018-01-07T22:17:17.203Z,28.95
2018-01-07T22:19:45.600Z,29.05
2018-01-07T22:22:13.950Z,27.10
2018-01-07T22:24:41.581Z,31.05
2018-01-07T22:27:09.159Z,29.75
2018-01-07T22:29:36.792Z,29.85
2018-01-07T22:32:04.384Z,29.00
2018-01-07T22:34:32.017Z,30.60
2018-01-07T22:36:59.612Z,29.17
2018-01-07T22:39:27.247Z,30.33
2018-01-07T22:41:54.834Z,30.95
2018-01-07T22:44:22.461Z,28.23
2018-01-07T22:46:50.054Z,30.70
2018-01-07T22:49:17.684Z,28.70
2018-01-07T22:51:45.275Z,31.05
2018-01-07T22:54:12.909Z,29.00
2018-01-07T22:56:40.492Z,30.08
2018-01-07T22:59:08.878Z,27.95
2018-01-07T23:01:36.458Z,29.85
2018-01-07T23:04:04.854Z,31.98
2018-01-07T23:06:32.425Z,28.05
2018-01-07T23:09:00.056Z,31.30
2018-01-07T23:11:28.408Z,30.45
2018-01-07T23:13:56.042Z,31.62
2018-01-07T23:16:23.627Z,27.90
2018-01-07T23:18:51.254Z,32.20
2018-01-07T23:21:18.850Z,31.37
2018-01-07T23:23:46.477Z,30.37
2018-01-07T23:26:14.053Z,29.40
2018-01-07T23:28:41.679Z,30.25
2018-01-07T23:31:09.258Z,30.40
2018-01-07T23:33:36.845Z,31.73
2018-01-07T23:36:04.434Z,30.62
2018-01-07T23:38:32.060Z,29.67
2018-01-07T23:40:59.642Z,31.05
2018-01-07T23:43:27.272Z,32.53
2018-01-07T23:45:54.811Z,30.58
2018-01-07T23:48:22.426Z,30.12
2018-01-07T23:50:50.007Z,29.55
2018-01-07T23:53:18.366Z,30.77
2018-01-07T23:55:45.945Z,27.35
2018-01-07T23:58:14.335Z,29.45
